.
WxDataArchive / Data Records for 2010-01-16
2010-01-15 January 2010 2010-01-17

Data Records for Saturday, 16 January 2010

Time	Temp	Chill	HIndex	Humid	Dewpt	 Wind 	HiWind	WindDir	Rain 	Barom 
-----	----	-----	------	-----	-----	------	------	-------	-----	----- 
00:00	33.1	33.1	33.1	88	29.9	1	4	248	0.00	30.281 
00:05	33.1	33.1	33.1	88	29.9	1	3	248	0.00	30.281 
00:10	33.1	33.1	33.1	89	30.2	1	3	248	0.00	30.281 
00:15	33.1	33.1	33.1	89	30.2	1	4	248	0.00	30.274 
00:20	33.1	33.1	33.1	89	30.2	1	3	248	0.00	30.274 
00:25	33.1	33.1	33.1	89	30.2	1	3	248	0.00	30.274 
00:30	33.1	33.1	33.1	89	30.2	0	2	248	0.00	30.266 
00:35	33.1	33.1	33.1	90	30.5	1	4	270	0.00	30.266 
00:40	33.1	33.1	33.1	90	30.5	1	3	270	0.00	30.266 
00:45	33.1	33.1	33.1	90	30.5	1	4	270	0.00	30.264 
00:50	33.1	33.1	33.1	90	30.5	1	3	248	0.00	30.264 
00:55	32.9	32.9	32.9	91	30.6	0	2	248	0.00	30.264 
01:00	32.9	32.9	32.9	91	30.6	1	2	248	0.00	30.256 
01:05	32.9	32.9	32.9	91	30.6	0	2	248	0.00	30.256 
01:10	32.9	32.9	32.9	91	30.6	0	2	248	0.00	30.256 
01:15	32.9	32.9	32.9	91	30.6	1	4	248	0.00	30.247 
01:20	32.9	32.9	32.9	91	30.6	0	2	248	0.00	30.247 
01:25	32.9	32.9	32.9	92	30.8	0	2	248	0.00	30.247 
01:30	32.9	32.9	32.9	92	30.8	0	2	248	0.00	30.239 
01:35	32.9	32.9	32.9	92	30.8	0	2	248	0.00	30.239 
01:40	32.9	32.9	32.9	92	30.8	0	1	248	0.00	30.239 
01:45	32.9	32.9	32.9	92	30.8	0	1	248	0.00	30.244 
01:50	32.8	32.8	32.8	92	30.7	0	2	248	0.00	30.244 
01:55	32.8	32.8	32.8	92	30.7	0	2	248	0.00	30.244 
02:00	32.8	32.8	32.8	92	30.7	0	1	248	0.00	30.250 
02:05	32.8	32.8	32.8	92	30.7	0	2	248	0.00	30.250 
02:10	32.7	32.7	32.7	92	30.6	0	2	248	0.00	30.250 
02:15	32.7	32.7	32.7	92	30.6	0	2	248	0.00	30.255 
02:20	32.7	32.7	32.7	92	30.6	0	3	248	0.00	30.255 
02:25	32.7	32.7	32.7	92	30.6	0	3	248	0.00	30.255 
02:30	32.5	32.5	32.5	92	30.4	1	3	248	0.00	30.255 
02:35	32.5	32.5	32.5	92	30.4	1	3	248	0.00	30.255 
02:40	32.4	32.4	32.4	92	30.3	0	2	248	0.00	30.255 
02:45	32.4	32.4	32.4	92	30.3	0	1	248	0.00	30.255 
02:50	32.4	32.4	32.4	92	30.3	0	2	248	0.00	30.255 
02:55	32.2	32.2	32.2	93	30.4	0	1	248	0.00	30.255 
03:00	32.2	32.2	32.2	92	30.1	1	3	248	0.00	30.261 
03:05	32.1	32.1	32.1	92	30.0	1	3	248	0.00	30.261 
03:10	31.9	31.9	31.9	92	29.8	0	2	248	0.00	30.261 
03:15	31.9	31.9	31.9	92	29.8	0	1	248	0.00	30.268 
03:20	31.9	31.9	31.9	92	29.8	0	1	248	0.00	30.268 
03:25	31.9	31.9	31.9	92	29.8	0	2	248	0.00	30.268 
03:30	31.9	31.9	31.9	92	29.8	1	2	270	0.00	30.270 
03:35	31.8	31.8	31.8	92	29.7	1	2	248	0.00	30.270 
03:40	31.6	31.6	31.6	92	29.5	1	2	248	0.00	30.270 
03:45	31.6	31.6	31.6	92	29.5	2	3	270	0.00	30.271 
03:50	31.6	31.6	31.6	92	29.5	1	4	248	0.00	30.271 
03:55	31.5	31.5	31.5	92	29.4	1	2	248	0.00	30.271 
04:00	31.5	31.5	31.5	92	29.4	1	2	248	0.00	30.268 
04:05	31.5	31.5	31.5	92	29.4	1	4	248	0.00	30.268 
04:10	31.5	31.5	31.5	92	29.4	1	4	248	0.00	30.268 
04:15	31.5	31.5	31.5	92	29.4	1	3	248	0.00	30.269 
04:20	31.5	31.5	31.5	92	29.4	0	3	248	0.00	30.269 
04:25	31.5	31.5	31.5	92	29.4	0	2	248	0.00	30.269 
04:30	31.3	31.3	31.3	92	29.3	1	2	248	0.00	30.260 
04:35	31.3	31.3	31.3	92	29.3	0	2	248	0.00	30.260 
04:40	31.3	31.3	31.3	92	29.3	1	2	248	0.00	30.260 
04:45	31.2	31.2	31.2	92	29.2	0	2	248	0.00	30.254 
04:50	31.2	31.2	31.2	92	29.2	0	1	248	0.00	30.254 
04:55	31.0	31.0	31.0	92	29.0	1	4	248	0.00	30.254 
05:00	31.0	31.0	31.0	92	29.0	0	1	248	0.00	30.252 
05:05	31.0	31.0	31.0	92	29.0	0	1	248	0.00	30.252 
05:10	31.0	31.0	31.0	92	29.0	0	2	248	0.00	30.252 
05:15	30.9	30.9	30.9	92	28.9	0	1	248	0.00	30.257 
05:20	30.9	30.9	30.9	92	28.9	0	2	248	0.00	30.257 
05:25	30.7	30.7	30.7	92	28.7	0	2	248	0.00	30.257 
05:30	30.7	30.7	30.7	92	28.7	0	2	248	0.00	30.270 
05:35	30.6	30.6	30.6	92	28.6	0	2	248	0.00	30.270 
05:40	30.6	30.6	30.6	92	28.6	0	2	248	0.00	30.270 
05:45	30.6	30.6	30.6	92	28.6	0	1	248	0.00	30.271 
05:50	30.6	30.6	30.6	92	28.6	1	4	248	0.00	30.271 
05:55	30.4	30.4	30.4	92	28.4	1	2	248	0.00	30.271 
06:00	30.3	30.3	30.3	92	28.3	1	3	248	0.00	30.282 
06:05	30.1	30.1	30.1	92	28.1	0	1	225	0.00	30.282 
06:10	30.1	30.1	30.1	92	28.1	0	0	---	0.00	30.282 
06:15	30.1	30.1	30.1	92	28.1	0	3	225	0.00	30.285 
06:20	30.1	30.1	30.1	92	28.1	0	2	225	0.00	30.285 
06:25	30.1	30.1	30.1	92	28.1	0	0	---	0.00	30.285 
06:30	30.1	30.1	30.1	92	28.1	0	2	225	0.00	30.273 
06:35	30.3	30.3	30.3	92	28.3	0	3	225	0.00	30.273 
06:40	30.3	30.3	30.3	92	28.3	0	2	225	0.00	30.273 
06:45	30.3	30.3	30.3	92	28.3	0	1	225	0.00	30.260 
06:50	30.3	30.3	30.3	92	28.3	0	1	225	0.00	30.260 
06:55	30.3	30.3	30.3	92	28.3	0	1	225	0.00	30.260 
07:00	30.3	30.3	30.3	92	28.3	0	1	225	0.00	30.260 
07:05	30.1	30.1	30.1	92	28.1	0	2	315	0.00	30.260 
07:10	30.1	30.1	30.1	92	28.1	0	2	248	0.00	30.260 
07:15	30.1	30.1	30.1	92	28.1	0	2	248	0.00	30.255 
07:20	30.1	30.1	30.1	92	28.1	0	1	248	0.00	30.255 
07:25	30.1	30.1	30.1	92	28.1	1	3	248	0.00	30.255 
07:30	30.1	30.1	30.1	92	28.1	0	2	248	0.00	30.254 
07:35	30.0	30.0	30.0	92	28.0	1	4	248	0.00	30.254 
07:40	30.0	30.0	30.0	92	28.0	0	2	248	0.00	30.254 
07:45	30.0	30.0	30.0	92	28.0	0	1	248	0.00	30.244 
07:50	30.0	30.0	30.0	92	28.0	0	2	248	0.00	30.244 
07:55	30.1	30.1	30.1	92	28.1	0	1	248	0.00	30.244 
08:00	30.1	30.1	30.1	92	28.1	0	0	---	0.00	30.237 
08:05	30.0	30.0	30.0	92	28.0	0	2	248	0.00	30.237 
08:10	29.8	29.8	29.8	92	27.8	1	4	248	0.00	30.237 
08:15	29.8	29.8	29.8	92	27.8	1	4	248	0.00	30.236 
08:20	29.8	29.8	29.8	92	27.8	1	3	248	0.00	30.236 
08:25	29.8	29.8	29.8	92	27.8	0	3	248	0.00	30.236 
08:30	30.0	30.0	30.0	92	28.0	1	3	248	0.00	30.228 
08:35	30.0	30.0	30.0	92	28.0	1	3	248	0.00	30.228 
08:40	29.8	29.8	29.8	92	27.8	0	1	248	0.00	30.228 
08:45	29.8	29.8	29.8	92	27.8	0	1	248	0.00	30.231 
08:50	29.8	29.8	29.8	92	27.8	0	1	248	0.00	30.231 
08:55	30.0	30.0	30.0	92	28.0	0	2	248	0.00	30.231 
09:00	30.0	30.0	30.0	92	28.0	0	2	248	0.00	30.252 
09:05	30.1	30.1	30.1	92	28.1	0	2	248	0.00	30.252 
09:10	30.1	30.1	30.1	92	28.1	0	2	248	0.00	30.252 
09:15	30.0	30.0	30.0	92	28.0	1	4	248	0.00	30.261 
09:20	30.1	30.1	30.1	92	28.1	0	3	248	0.00	30.261 
09:25	30.1	30.1	30.1	92	28.1	0	2	248	0.00	30.261 
09:30	30.1	30.1	30.1	92	28.1	1	3	248	0.00	30.285 
09:35	30.3	30.3	30.3	91	28.0	1	3	248	0.00	30.285 
09:40	30.3	30.3	30.3	91	28.0	1	5	248	0.00	30.285 
09:45	30.3	30.3	30.3	91	28.0	1	3	248	0.00	30.299 
09:50	30.3	30.3	30.3	91	28.0	1	4	292	0.00	30.299 
09:55	30.3	30.3	30.3	91	28.0	1	5	90	0.00	30.299 
10:00	30.3	30.3	30.3	91	28.0	1	4	225	0.00	30.289 
10:05	30.3	30.3	30.3	91	28.0	1	3	225	0.00	30.289 
10:10	30.3	30.3	30.3	91	28.0	0	2	248	0.00	30.289 
10:15	30.4	30.4	30.4	91	28.1	0	2	248	0.00	30.283 
10:20	30.4	30.4	30.4	91	28.1	0	2	248	0.00	30.283 
10:25	30.6	30.6	30.6	91	28.3	0	2	248	0.00	30.283 
10:30	30.6	30.6	30.6	91	28.3	0	2	248	0.00	30.270 
10:35	30.9	30.9	30.9	91	28.6	0	3	248	0.00	30.270 
10:40	30.9	30.9	30.9	91	28.6	1	3	248	0.00	30.270 
10:45	30.9	30.9	30.9	90	28.3	0	4	248	0.00	30.288 
10:50	31.0	31.0	31.0	90	28.4	0	3	248	0.00	30.288 
10:55	31.0	31.0	31.0	90	28.4	1	4	248	0.00	30.288 
11:00	31.0	31.0	31.0	90	28.4	1	3	248	0.00	30.290 
11:05	31.0	31.0	31.0	89	28.1	2	6	270	0.00	30.290 
11:10	31.0	31.0	31.0	89	28.1	1	4	248	0.00	30.290 
11:15	31.2	31.2	31.2	89	28.3	1	3	270	0.00	30.280 
11:20	31.3	31.3	31.3	89	28.4	1	5	270	0.00	30.280 
11:25	31.5	31.5	31.5	89	28.6	1	4	225	0.00	30.280 
11:30	31.6	31.6	31.6	89	28.7	1	4	248	0.00	30.274 
11:35	31.6	31.6	31.6	88	28.5	0	3	248	0.00	30.274 
11:40	31.6	31.6	31.6	88	28.5	1	3	248	0.00	30.274 
11:45	31.6	31.6	31.6	88	28.5	0	2	248	0.00	30.261 
11:50	31.6	31.6	31.6	88	28.5	0	3	248	0.00	30.261 
11:55	31.6	31.6	31.6	88	28.5	1	4	248	0.00	30.261 
12:00	31.8	31.8	31.8	88	28.7	1	3	248	0.00	30.249 
12:05	31.8	31.8	31.8	88	28.7	1	3	248	0.00	30.249 
12:10	31.8	31.8	31.8	87	28.4	1	4	248	0.00	30.249 
12:15	31.8	31.8	31.8	87	28.4	1	3	270	0.00	30.233 
12:20	31.8	31.8	31.8	87	28.4	1	3	270	0.00	30.233 
12:25	31.8	31.8	31.8	87	28.4	0	2	270	0.00	30.233 
12:30	32.1	32.1	32.1	87	28.7	1	3	248	0.00	30.238 
12:35	32.2	32.2	32.2	87	28.8	0	1	225	0.00	30.238 
12:40	32.1	32.1	32.1	86	28.4	1	3	270	0.00	30.238 
12:45	32.1	32.1	32.1	86	28.4	0	3	248	0.00	30.244 
12:50	32.1	32.1	32.1	86	28.4	0	2	248	0.00	30.244 
12:55	32.2	32.2	32.2	86	28.5	0	2	248	0.00	30.244 
13:00	32.1	32.1	32.1	86	28.4	1	3	248	0.00	30.245 
13:05	32.1	32.1	32.1	86	28.4	2	4	248	0.00	30.245 
13:10	31.9	31.9	31.9	86	28.2	2	5	248	0.00	30.245 
13:15	31.8	31.8	31.8	86	28.1	2	4	248	0.00	30.227 
13:20	31.9	31.9	31.9	87	28.5	1	6	225	0.00	30.227 
13:25	32.1	32.1	32.1	86	28.4	1	4	248	0.00	30.227 
13:30	32.1	32.1	32.1	86	28.4	1	9	248	0.00	30.212 
13:35	32.2	32.2	32.2	86	28.5	1	3	248	0.00	30.212 
13:40	32.2	32.2	32.2	86	28.5	1	4	248	0.00	30.212 
13:45	32.4	32.4	32.4	86	28.7	2	5	248	0.00	30.202 
13:50	32.2	32.2	32.2	86	28.5	2	5	248	0.00	30.202 
13:55	32.4	32.4	32.4	86	28.7	1	4	248	0.00	30.202 
14:00	32.4	32.4	32.4	86	28.7	1	2	270	0.00	30.203 
14:05	32.4	32.4	32.4	86	28.7	1	2	270	0.00	30.203 
14:10	32.5	32.5	32.5	86	28.8	1	6	248	0.00	30.203 
14:15	32.5	32.5	32.5	85	28.5	1	3	248	0.00	30.210 
14:20	32.5	32.5	32.5	85	28.5	1	4	248	0.00	30.210 
14:25	32.5	32.5	32.5	85	28.5	1	3	248	0.00	30.210 
14:30	32.7	32.7	32.7	84	28.4	2	5	248	0.00	30.210 
14:35	32.7	32.7	32.7	85	28.7	0	1	248	0.00	30.210 
14:40	32.9	32.9	32.9	84	28.6	1	3	248	0.00	30.210 
14:45	32.9	32.9	32.9	84	28.6	0	2	248	0.00	30.210 
14:50	32.9	32.9	32.9	84	28.6	1	4	248	0.00	30.210 
14:55	32.9	32.9	32.9	84	28.6	1	3	248	0.00	30.210 
15:00	33.1	33.1	33.1	84	28.8	0	3	248	0.00	30.194 
15:05	33.2	33.2	33.2	83	28.6	1	3	248	0.00	30.194 
15:10	33.4	33.4	33.4	83	28.8	0	3	248	0.00	30.194 
15:15	33.4	33.4	33.4	83	28.8	0	1	248	0.00	30.185 
15:20	33.4	33.4	33.4	83	28.8	0	1	248	0.00	30.185 
15:25	33.4	33.4	33.4	83	28.8	0	2	270	0.00	30.185 
15:30	33.4	33.4	33.4	83	28.8	0	0	---	0.00	30.184 
15:35	33.5	33.5	33.5	83	28.9	0	0	---	0.00	30.184 
15:40	33.5	33.5	33.5	82	28.6	0	1	270	0.00	30.184 
15:45	33.5	33.5	33.5	82	28.6	0	1	270	0.00	30.179 
15:50	33.5	33.5	33.5	82	28.6	0	0	---	0.00	30.179 
15:55	33.5	33.5	33.5	82	28.6	0	0	---	0.00	30.179 
16:00	33.5	33.5	33.5	81	28.3	0	2	270	0.00	30.169 
16:05	33.2	33.2	33.2	82	28.3	0	2	270	0.00	30.169 
16:10	33.1	33.1	33.1	82	28.2	0	1	270	0.00	30.169 
16:15	32.9	32.9	32.9	83	28.3	0	1	270	0.00	30.166 
16:20	32.9	32.9	32.9	83	28.3	0	1	270	0.00	30.166 
16:25	33.1	33.1	33.1	83	28.5	0	0	---	0.00	30.166 
16:30	33.1	33.1	33.1	82	28.2	0	1	270	0.00	30.152 
16:35	33.1	33.1	33.1	83	28.5	0	2	270	0.00	30.152 
16:40	33.1	33.1	33.1	83	28.5	0	1	270	0.00	30.152 
16:45	33.1	33.1	33.1	83	28.5	0	1	270	0.00	30.152 
16:50	33.1	33.1	33.1	83	28.5	0	1	270	0.00	30.152 
16:55	33.1	33.1	33.1	83	28.5	0	1	270	0.00	30.152 
17:00	32.9	32.9	32.9	83	28.3	0	2	270	0.00	30.157 
17:05	32.9	32.9	32.9	83	28.3	0	1	270	0.00	30.157 
17:10	32.8	32.8	32.8	84	28.5	0	2	270	0.00	30.157 
17:15	32.7	32.7	32.7	84	28.4	0	2	270	0.00	30.155 
17:20	32.5	32.5	32.5	84	28.2	1	3	22	0.00	30.155 
17:25	32.4	32.4	32.4	85	28.4	1	2	248	0.00	30.155 
17:30	32.2	32.2	32.2	85	28.2	1	4	248	0.00	30.160 
17:35	32.1	32.1	32.1	85	28.1	0	2	248	0.00	30.160 
17:40	32.1	32.1	32.1	85	28.1	0	3	248	0.00	30.160 
17:45	31.9	31.9	31.9	85	27.9	0	2	248	0.00	30.165 
17:50	31.9	31.9	31.9	85	27.9	0	1	248	0.00	30.165 
17:55	31.9	31.9	31.9	86	28.2	0	1	248	0.00	30.165 
18:00	31.8	31.8	31.8	86	28.1	0	3	112	0.00	30.166 
18:05	31.8	31.8	31.8	87	28.4	0	1	112	0.00	30.166 
18:10	31.8	31.8	31.8	87	28.4	0	2	112	0.00	30.166 
18:15	31.6	31.6	31.6	87	28.2	0	1	112	0.00	30.170 
18:20	31.6	31.6	31.6	88	28.5	0	2	112	0.00	30.170 
18:25	31.5	31.5	31.5	88	28.4	0	2	112	0.00	30.170 
18:30	31.5	31.5	31.5	88	28.4	0	1	112	0.00	30.175 
18:35	31.5	31.5	31.5	88	28.4	0	1	112	0.00	30.175 
18:40	31.3	31.3	31.3	88	28.2	0	1	112	0.00	30.175 
18:45	31.3	31.3	31.3	88	28.2	0	2	112	0.00	30.173 
18:50	31.2	31.2	31.2	88	28.1	0	2	112	0.00	30.173 
18:55	31.0	31.0	31.0	88	27.9	0	1	112	0.00	30.173 
19:00	31.0	31.0	31.0	89	28.1	0	0	---	0.00	30.163 
19:05	31.0	31.0	31.0	89	28.1	0	1	112	0.00	30.163 
19:10	31.0	31.0	31.0	89	28.1	0	0	---	0.00	30.163 
19:15	31.0	31.0	31.0	89	28.1	0	1	112	0.00	30.158 
19:20	31.0	31.0	31.0	89	28.1	0	1	112	0.00	30.158 
19:25	31.0	31.0	31.0	89	28.1	0	0	---	0.00	30.158 
19:30	31.0	31.0	31.0	89	28.1	0	0	---	0.00	30.161 
19:35	31.0	31.0	31.0	90	28.4	0	2	112	0.00	30.161 
19:40	31.0	31.0	31.0	90	28.4	0	2	112	0.00	30.161 
19:45	31.0	31.0	31.0	90	28.4	0	1	112	0.00	30.156 
19:50	31.0	31.0	31.0	90	28.4	0	1	112	0.00	30.156 
19:55	31.0	31.0	31.0	90	28.4	0	0	---	0.00	30.156 
20:00	31.0	31.0	31.0	90	28.4	0	1	112	0.00	30.157 
20:05	31.0	31.0	31.0	90	28.4	0	1	112	0.00	30.157 
20:10	31.0	31.0	31.0	91	28.7	0	0	---	0.00	30.157 
20:15	31.0	31.0	31.0	91	28.7	0	1	112	0.00	30.155 
20:20	31.0	31.0	31.0	91	28.7	0	0	---	0.00	30.155 
20:25	31.0	31.0	31.0	91	28.7	0	1	112	0.00	30.155 
20:30	31.2	31.2	31.2	91	28.9	0	1	112	0.00	30.151 
20:35	31.0	31.0	31.0	91	28.7	0	1	112	0.00	30.151 
20:40	31.0	31.0	31.0	92	29.0	0	1	112	0.00	30.151 
20:45	31.0	31.0	31.0	92	29.0	0	1	112	0.00	30.148 
20:50	31.0	31.0	31.0	92	29.0	0	2	112	0.00	30.148 
20:55	31.0	31.0	31.0	92	29.0	0	3	112	0.00	30.148 
21:00	31.0	31.0	31.0	92	29.0	0	1	112	0.00	30.139 
21:05	31.0	31.0	31.0	92	29.0	0	2	112	0.00	30.139 
21:10	31.0	31.0	31.0	93	29.2	0	1	112	0.00	30.139 
21:15	31.0	31.0	31.0	93	29.2	0	1	112	0.00	30.133 
21:20	31.0	31.0	31.0	93	29.2	0	0	---	0.00	30.133 
21:25	31.0	31.0	31.0	93	29.2	0	0	---	0.00	30.133 
21:30	31.2	31.2	31.2	93	29.4	0	0	---	0.00	30.121 
21:35	31.2	31.2	31.2	93	29.4	0	0	---	0.00	30.121 
21:40	31.2	31.2	31.2	93	29.4	0	0	---	0.00	30.121 
21:45	31.2	31.2	31.2	93	29.4	0	0	---	0.00	30.109 
21:50	31.2	31.2	31.2	94	29.7	0	1	112	0.00	30.109 
21:55	31.2	31.2	31.2	94	29.7	0	0	---	0.00	30.109 
22:00	31.2	31.2	31.2	94	29.7	0	0	---	0.00	30.112 
22:05	31.2	31.2	31.2	94	29.7	0	0	---	0.00	30.112 
22:10	31.2	31.2	31.2	94	29.7	0	0	---	0.00	30.112 
22:15	31.2	31.2	31.2	94	29.7	0	0	---	0.00	30.107 
22:20	31.2	31.2	31.2	94	29.7	0	0	---	0.00	30.107 
22:25	31.2	31.2	31.2	94	29.7	0	1	112	0.00	30.107 
22:30	31.2	31.2	31.2	94	29.7	0	0	---	0.00	30.101 
22:35	31.2	31.2	31.2	94	29.7	0	0	---	0.00	30.101 
22:40	31.2	31.2	31.2	94	29.7	0	1	112	0.00	30.101 
22:45	31.2	31.2	31.2	94	29.7	0	1	112	0.00	30.090 
22:50	31.2	31.2	31.2	95	29.9	0	1	112	0.00	30.090 
22:55	31.3	31.3	31.3	95	30.0	0	1	112	0.00	30.090 
23:00	31.3	31.3	31.3	95	30.0	0	1	112	0.00	30.089 
23:05	31.3	31.3	31.3	95	30.0	0	1	112	0.00	30.089 
23:10	31.3	31.3	31.3	95	30.0	0	1	112	0.00	30.089 
23:15	31.3	31.3	31.3	95	30.0	0	0	---	0.00	30.086 
23:20	31.3	31.3	31.3	95	30.0	0	1	112	0.00	30.086 
23:25	31.3	31.3	31.3	95	30.0	0	0	---	0.00	30.086 
23:30	31.3	31.3	31.3	95	30.0	0	0	---	0.00	30.077 
23:35	31.5	31.5	31.5	95	30.2	0	0	---	0.00	30.077 
23:40	31.5	31.5	31.5	95	30.2	0	0	---	0.00	30.077 
23:45	31.5	31.5	31.5	95	30.2	0	0	---	0.00	30.070 
23:50	31.5	31.5	31.5	95	30.2	0	0	---	0.00	30.070 
23:55	31.5	31.5	31.5	95	30.2	0	0	---	0.00	30.070 

CoCoRaHS
IN-AL-39
A2 Web Hosting
Creative Commons License
GoDaddy
search engine by freefind advanced

loaded 2018-11-15 06:28:34 • last modified 2010-11-18 10:43:29
Privacy PolicyDisclaimer
• wx.awcolley.com is powered by PmWiki v.2002016 •
• all content (unless otherwise noted) © 2018 A W Colley